Time;durP1;ratioP1;P1;durP2;ratioP2;P2;SDS_P1;SDS_P2;PMS_P1;PMS_P2;Temp;Humidity;BMP_temperature;BMP_pressure;BME280_temperature;BME280_humidity;BME280_pressure;Samples;Min_cycle;Max_cycle;Signal;HPM_P1;HPM_P2
2024/03/09 00:00:16;;;;;;;9.82;6.68;;;6.70;99.90;;;;;;4977070;28;20034;-76
2024/03/09 00:02:50;;;;;;;9.13;5.85;;;6.60;99.90;;;;;;4978477;28;20113;-76
2024/03/09 00:05:17;;;;;;;9.55;6.70;;;6.70;99.90;;;;;;4979356;28;20038;-75
2024/03/09 00:07:43;;;;;;;10.38;7.03;;;6.70;99.90;;;;;;4978098;28;20034;-76
2024/03/09 00:10:11;;;;;;;8.70;5.80;;;6.70;99.90;;;;;;4980315;28;20058;-76
2024/03/09 00:12:42;;;;;;;10.43;6.68;;;6.70;99.90;;;;;;4979052;28;20034;-76
2024/03/09 00:15:11;;;;;;;9.90;6.28;;;6.70;99.90;;;;;;4979538;28;20079;-75
2024/03/09 00:17:41;;;;;;;10.77;6.50;;;6.70;99.90;;;;;;4978004;28;20382;-76
2024/03/09 00:20:21;;;;;;;9.88;5.75;;;6.70;99.90;;;;;;4979255;28;20044;-76
2024/03/09 00:22:47;;;;;;;9.30;5.70;;;6.70;99.90;;;;;;4979795;28;20124;-75
2024/03/09 00:25:13;;;;;;;9.05;5.32;;;6.70;99.90;;;;;;4979744;28;20161;-75
2024/03/09 00:27:39;;;;;;;9.52;5.82;;;6.80;99.90;;;;;;4977605;28;20018;-76
2024/03/09 00:30:22;;;;;;;11.10;7.25;;;6.70;99.90;;;;;;4978952;28;20833;-76
2024/03/09 00:32:48;;;;;;;8.82;5.38;;;6.70;99.90;;;;;;4978984;28;20579;-76
2024/03/09 00:35:14;;;;;;;9.48;6.00;;;6.70;99.90;;;;;;4979483;28;20061;-75
2024/03/09 00:37:40;;;;;;;9.57;5.95;;;6.70;99.90;;;;;;4978389;28;20039;-75
2024/03/09 00:40:10;;;;;;;7.97;4.82;;;6.70;99.90;;;;;;4980492;28;20034;-75
2024/03/09 00:42:36;;;;;;;8.55;5.25;;;6.70;99.90;;;;;;4979621;28;20064;-76
2024/03/09 00:45:05;;;;;;;9.02;5.53;;;6.80;99.90;;;;;;4982810;28;20500;-76
2024/03/09 00:47:32;;;;;;;8.48;6.45;;;6.70;99.90;;;;;;4980901;28;20451;-75
2024/03/09 00:49:58;;;;;;;9.60;6.05;;;6.60;99.90;;;;;;4982621;28;20039;-75
2024/03/09 00:52:25;;;;;;;13.77;6.97;;;6.60;99.90;;;;;;4981119;28;20022;-75
2024/03/09 00:55:00;;;;;;;8.52;5.90;;;6.60;99.90;;;;;;4980601;28;20034;-75
2024/03/09 00:57:26;;;;;;;11.23;6.85;;;6.50;99.90;;;;;;4982708;28;20086;-75
2024/03/09 00:59:55;;;;;;;8.98;6.20;;;6.50;99.90;;;;;;4988078;28;20121;-76
2024/03/09 01:02:21;;;;;;;9.05;6.35;;;6.50;99.90;;;;;;4986536;28;20022;-76
2024/03/09 01:04:50;;;;;;;8.35;5.82;;;6.40;99.90;;;;;;4985441;28;20093;-76
2024/03/09 01:07:16;;;;;;;10.05;6.20;;;6.40;99.90;;;;;;4984134;28;20050;-75
2024/03/09 01:09:43;;;;;;;9.63;6.40;;;6.40;99.90;;;;;;4987521;28;20101;-75
2024/03/09 01:12:09;;;;;;;10.88;6.82;;;6.40;99.90;;;;;;4986595;28;20033;-76
2024/03/09 01:14:36;;;;;;;10.05;6.18;;;6.40;99.90;;;;;;4986834;28;20428;-75
2024/03/09 01:17:01;;;;;;;8.68;5.90;;;6.40;99.90;;;;;;4984457;28;20136;-75
2024/03/09 01:19:29;;;;;;;8.10;5.53;;;6.30;99.90;;;;;;4985807;28;20065;-75
2024/03/09 01:21:59;;;;;;;9.25;6.22;;;6.30;99.90;;;;;;4985469;28;20477;-76
2024/03/09 01:24:25;;;;;;;10.05;6.47;;;6.30;99.90;;;;;;4984910;28;20038;-75
2024/03/09 01:26:50;;;;;;;8.93;5.93;;;6.30;99.90;;;;;;4984230;28;20060;-75
2024/03/09 01:29:16;;;;;;;8.10;5.72;;;6.30;99.90;;;;;;4986335;28;20034;-75
2024/03/09 01:31:41;;;;;;;8.20;5.60;;;6.30;99.90;;;;;;4985136;28;20036;-76
2024/03/09 01:34:09;;;;;;;7.28;5.03;;;6.20;99.90;;;;;;4986442;28;20077;-76
2024/03/09 01:36:35;;;;;;;9.60;6.32;;;6.20;99.90;;;;;;4985477;28;20034;-75
2024/03/09 01:39:00;;;;;;;9.13;6.43;;;6.20;99.90;;;;;;4986123;28;20056;-76
2024/03/09 01:41:28;;;;;;;8.85;6.00;;;6.20;99.90;;;;;;4986505;28;20158;-76
2024/03/09 01:43:55;;;;;;;8.63;5.75;;;6.10;99.90;;;;;;4984402;28;20038;-75
2024/03/09 01:46:21;;;;;;;9.23;5.65;;;6.10;99.90;;;;;;4985063;28;20042;-75
2024/03/09 01:48:48;;;;;;;7.55;4.72;;;6.10;99.90;;;;;;4981267;28;20396;-76
2024/03/09 01:51:15;;;;;;;7.80;4.93;;;6.10;99.90;;;;;;4985360;28;20053;-75
2024/03/09 01:53:42;;;;;;;8.90;5.63;;;6.20;99.90;;;;;;4983898;28;20327;-76
2024/03/09 01:56:12;;;;;;;9.10;5.50;;;6.20;99.90;;;;;;4984049;28;20113;-76
2024/03/09 01:58:41;;;;;;;8.40;5.38;;;6.20;99.90;;;;;;4984959;28;20029;-75
2024/03/09 02:01:22;;;;;;;7.75;4.82;;;6.20;99.90;;;;;;4984901;28;20485;-75
2024/03/09 02:03:55;;;;;;;6.05;3.95;;;6.20;99.90;;;;;;4984707;28;20045;-75
2024/03/09 02:06:23;;;;;;;6.90;4.30;;;6.30;99.90;;;;;;4981989;28;20057;-76
2024/03/09 02:08:51;;;;;;;7.30;4.32;;;6.20;99.90;;;;;;4986013;28;20030;-76
2024/03/09 02:11:17;;;;;;;6.65;4.28;;;6.10;99.90;;;;;;4985904;28;20046;-76
2024/03/09 02:13:43;;;;;;;8.93;4.70;;;6.20;99.90;;;;;;4985395;28;20064;-76
2024/03/09 02:16:10;;;;;;;8.52;5.45;;;6.20;99.90;;;;;;4984894;28;20131;-76
2024/03/09 02:18:36;;;;;;;7.40;5.18;;;6.10;99.90;;;;;;4984805;28;20034;-76
2024/03/09 02:21:03;;;;;;;7.35;4.72;;;6.10;99.90;;;;;;4985995;28;20026;-75
2024/03/09 02:23:32;;;;;;;7.75;4.95;;;6.00;99.90;;;;;;4983372;28;20034;-75
2024/03/09 02:25:59;;;;;;;7.45;4.88;;;6.00;99.90;;;;;;4984409;28;21292;-76
2024/03/09 02:28:27;;;;;;;8.48;4.47;;;6.00;99.90;;;;;;4983341;28;20034;-75
2024/03/09 02:30:54;;;;;;;7.38;4.22;;;6.00;99.90;;;;;;4984907;28;20117;-76
2024/03/09 02:33:20;;;;;;;6.57;3.90;;;6.00;99.90;;;;;;4983813;28;20100;-76
2024/03/09 02:35:47;;;;;;;6.50;3.95;;;6.00;99.90;;;;;;4984183;28;20126;-76
2024/03/09 02:38:13;;;;;;;8.38;4.57;;;6.00;99.90;;;;;;4983976;28;20080;-76
2024/03/09 02:40:39;;;;;;;6.32;3.63;;;6.00;99.90;;;;;;4985533;28;21441;-76
2024/03/09 02:43:06;;;;;;;7.28;4.50;;;6.00;99.90;;;;;;4984369;28;20618;-75
2024/03/09 02:45:32;;;;;;;6.05;3.75;;;6.00;99.90;;;;;;4982680;28;20405;-75
2024/03/09 02:47:58;;;;;;;6.68;4.07;;;5.90;99.90;;;;;;4982856;28;20053;-75
2024/03/09 02:50:27;;;;;;;8.05;3.75;;;5.90;99.90;;;;;;4985185;28;20672;-76
2024/03/09 02:52:53;;;;;;;5.72;3.78;;;5.90;99.90;;;;;;4983988;28;20034;-76
2024/03/09 02:55:19;;;;;;;6.03;3.65;;;5.90;99.90;;;;;;4983858;28;20354;-75
2024/03/09 02:57:46;;;;;;;6.32;4.35;;;5.90;99.90;;;;;;4983270;28;20048;-75
2024/03/09 03:00:13;;;;;;;6.55;4.00;;;5.90;99.90;;;;;;4985528;28;20062;-75
2024/03/09 03:05:24;;;;;;;5.93;4.07;;;6.00;99.90;;;;;;4983305;28;20519;-75
2024/03/09 03:07:51;;;;;;;6.93;4.57;;;6.00;99.90;;;;;;4984032;28;20043;-75
2024/03/09 03:10:16;;;;;;;6.38;4.70;;;5.90;99.90;;;;;;4983206;28;20058;-75
2024/03/09 03:12:42;;;;;;;7.28;4.70;;;5.90;99.90;;;;;;4984397;28;20040;-76
2024/03/09 03:15:08;;;;;;;6.55;4.50;;;6.00;99.90;;;;;;4980518;28;20034;-75
2024/03/09 03:17:36;;;;;;;6.28;4.40;;;6.00;99.90;;;;;;4984519;28;20038;-76
2024/03/09 03:20:04;;;;;;;6.38;4.68;;;6.00;99.90;;;;;;4984134;28;20382;-75
2024/03/09 03:22:29;;;;;;;6.90;4.82;;;6.00;99.90;;;;;;4983522;28;20469;-76
2024/03/09 03:24:56;;;;;;;6.95;4.18;;;6.00;99.90;;;;;;4983183;28;20052;-75
2024/03/09 03:27:21;;;;;;;7.07;4.20;;;6.00;99.90;;;;;;4983154;28;20034;-75
2024/03/09 03:29:51;;;;;;;6.85;4.63;;;6.00;99.90;;;;;;4983125;28;20105;-75
2024/03/09 03:32:17;;;;;;;6.55;4.20;;;6.00;99.90;;;;;;4984265;28;20034;-75
2024/03/09 03:34:43;;;;;;;6.30;4.38;;;6.00;99.90;;;;;;4983231;28;20132;-75
2024/03/09 03:37:09;;;;;;;6.15;4.20;;;6.00;99.90;;;;;;4983164;28;20034;-75
2024/03/09 03:39:35;;;;;;;5.95;4.35;;;6.00;99.90;;;;;;4983593;28;20104;-75
2024/03/09 03:42:00;;;;;;;6.30;3.95;;;5.90;99.90;;;;;;4984447;28;20034;-76
2024/03/09 03:44:33;;;;;;;7.43;4.63;;;5.90;99.90;;;;;;4981518;28;20041;-76
2024/03/09 03:46:58;;;;;;;5.88;4.07;;;5.90;99.90;;;;;;4983872;28;20373;-75
2024/03/09 03:49:25;;;;;;;6.43;4.00;;;5.90;99.90;;;;;;4983812;28;20030;-75
2024/03/09 03:51:50;;;;;;;5.10;3.08;;;6.00;99.90;;;;;;4984449;28;20022;-76
2024/03/09 03:54:16;;;;;;;5.25;3.25;;;6.00;99.90;;;;;;4982022;28;20038;-76
2024/03/09 03:56:42;;;;;;;5.72;3.70;;;6.10;99.90;;;;;;4982490;28;20037;-76
2024/03/09 03:59:09;;;;;;;5.07;3.58;;;6.00;99.90;;;;;;4983960;28;20037;-75
2024/03/09 04:01:35;;;;;;;6.25;3.20;;;6.10;99.90;;;;;;4982589;28;20659;-76
2024/03/09 04:04:00;;;;;;;5.93;3.70;;;6.10;99.90;;;;;;4978139;28;20046;-75
2024/03/09 04:06:26;;;;;;;5.30;3.17;;;6.00;99.90;;;;;;4978735;28;20481;-75
2024/03/09 04:08:52;;;;;;;6.18;3.72;;;6.00;99.90;;;;;;4980473;28;20696;-75
2024/03/09 04:11:18;;;;;;;7.43;4.13;;;6.00;99.90;;;;;;4979814;28;20054;-75
2024/03/09 04:13:44;;;;;;;6.40;4.18;;;6.00;99.90;;;;;;4978949;28;20372;-75
2024/03/09 04:16:09;;;;;;;7.43;4.00;;;6.00;99.90;;;;;;4977072;28;20041;-75
2024/03/09 04:18:36;;;;;;;6.82;4.55;;;5.90;99.90;;;;;;4979497;28;20030;-75
2024/03/09 04:21:02;;;;;;;6.00;3.70;;;5.90;99.90;;;;;;4981759;28;20034;-76
2024/03/09 04:23:28;;;;;;;7.47;4.65;;;5.90;99.90;;;;;;4981483;28;20061;-76
2024/03/09 04:25:55;;;;;;;7.00;4.65;;;5.90;99.90;;;;;;4982592;28;20041;-75
2024/03/09 04:28:22;;;;;;;7.35;4.80;;;5.90;99.90;;;;;;4982442;28;20061;-75
2024/03/09 04:30:49;;;;;;;6.38;4.57;;;5.80;99.90;;;;;;4982774;28;20026;-75
2024/03/09 04:33:16;;;;;;;9.77;4.30;;;5.80;99.90;;;;;;4982343;28;20089;-75
2024/03/09 04:35:42;;;;;;;6.57;4.55;;;5.80;99.90;;;;;;4982871;28;20049;-74
2024/03/09 04:38:09;;;;;;;8.18;4.93;;;5.80;99.90;;;;;;4982253;28;20138;-74
2024/03/09 04:40:35;;;;;;;6.63;4.78;;;5.80;99.90;;;;;;4982336;28;20576;-75
2024/03/09 04:43:04;;;;;;;7.55;5.00;;;5.80;99.90;;;;;;4983515;28;20093;-75
2024/03/09 04:45:32;;;;;;;6.78;4.40;;;5.80;99.90;;;;;;4982352;28;20515;-76
2024/03/09 04:47:59;;;;;;;8.02;4.65;;;5.90;99.90;;;;;;4981826;28;20066;-75
2024/03/09 04:50:25;;;;;;;6.15;3.88;;;5.80;99.90;;;;;;4980177;28;20058;-74
2024/03/09 04:52:51;;;;;;;5.95;4.15;;;5.80;99.90;;;;;;4979427;28;20113;-78
2024/03/09 04:55:30;;;;;;;6.57;4.18;;;5.80;99.90;;;;;;4980690;28;20145;-74
2024/03/09 04:57:59;;;;;;;6.78;4.05;;;5.90;99.90;;;;;;4981489;28;20121;-75
2024/03/09 05:00:30;;;;;;;5.80;3.63;;;5.90;99.90;;;;;;4976902;28;20518;-75
2024/03/09 05:02:56;;;;;;;7.38;4.03;;;5.90;99.90;;;;;;4979678;28;20512;-77
2024/03/09 05:05:22;;;;;;;6.57;4.00;;;5.90;99.90;;;;;;4980052;28;20137;-76
2024/03/09 05:07:50;;;;;;;6.15;3.97;;;6.00;99.90;;;;;;4980023;28;20045;-77
2024/03/09 05:10:18;;;;;;;5.75;3.55;;;6.00;99.90;;;;;;4981114;28;20512;-77
2024/03/09 05:12:50;;;;;;;5.57;3.63;;;5.90;99.90;;;;;;4985152;28;20034;-75
2024/03/09 05:15:15;;;;;;;4.82;2.90;;;5.90;99.90;;;;;;4985708;28;20030;-74
2024/03/09 05:17:41;;;;;;;5.45;3.10;;;6.00;99.90;;;;;;4984538;28;20044;-75
2024/03/09 05:20:20;;;;;;;5.28;3.00;;;6.00;99.90;;;;;;4983924;28;20506;-75
2024/03/09 05:22:53;;;;;;;4.30;2.70;;;6.00;99.90;;;;;;4981530;28;20022;-77
2024/03/09 05:25:21;;;;;;;4.32;2.70;;;6.10;99.90;;;;;;4980385;28;20042;-77
2024/03/09 05:27:48;;;;;;;8.05;3.20;;;6.00;99.90;;;;;;4982485;28;20027;-74
2024/03/09 05:30:16;;;;;;;5.13;2.85;;;6.00;99.90;;;;;;4982332;28;20121;-75
2024/03/09 05:32:43;;;;;;;3.88;2.13;;;6.00;99.90;;;;;;4983984;28;20121;-74
2024/03/09 05:35:13;;;;;;;5.43;2.83;;;6.00;99.90;;;;;;4984716;28;20644;-74
2024/03/09 05:37:42;;;;;;;4.53;2.50;;;6.20;99.90;;;;;;4982356;28;20037;-77
2024/03/09 05:40:09;;;;;;;5.10;3.05;;;6.10;99.90;;;;;;4980870;28;20045;-77
2024/03/09 05:42:36;;;;;;;4.68;2.90;;;6.10;99.90;;;;;;4978981;28;20400;-75
2024/03/09 05:45:09;;;;;;;3.97;2.38;;;6.00;99.90;;;;;;4979271;28;20046;-77
2024/03/09 05:47:35;;;;;;;4.72;2.97;;;5.90;99.90;;;;;;4977642;28;20042;-77
2024/03/09 05:50:01;;;;;;;5.25;3.03;;;5.90;99.90;;;;;;4976661;28;20068;-77
2024/03/09 05:52:27;;;;;;;4.55;2.45;;;5.90;99.90;;;;;;4979725;28;20504;-77
2024/03/09 05:54:52;;;;;;;4.43;2.78;;;5.90;99.90;;;;;;4976647;28;20081;-77
2024/03/09 05:57:22;;;;;;;4.57;2.50;;;5.90;99.90;;;;;;4980963;28;20203;-77
2024/03/09 05:59:49;;;;;;;5.68;2.83;;;6.00;99.90;;;;;;4979090;28;20625;-77
2024/03/09 06:02:15;;;;;;;4.80;2.60;;;6.00;99.90;;;;;;4980945;28;20509;-77
2024/03/09 06:04:41;;;;;;;5.53;2.53;;;6.00;99.90;;;;;;4980001;28;20046;-77
2024/03/09 06:07:06;;;;;;;4.95;2.50;;;6.10;99.90;;;;;;4980940;28;20085;-76
2024/03/09 06:09:32;;;;;;;4.90;3.20;;;6.10;99.90;;;;;;4980428;28;20046;-77
2024/03/09 06:11:57;;;;;;;4.50;2.70;;;6.10;99.90;;;;;;4977714;28;20046;-77
2024/03/09 06:14:23;;;;;;;6.80;4.47;;;6.00;99.90;;;;;;4977131;28;20068;-77
2024/03/09 06:16:49;;;;;;;7.78;4.75;;;6.10;99.90;;;;;;4978086;28;20058;-75
2024/03/09 06:19:15;;;;;;;7.15;4.40;;;6.10;99.90;;;;;;4977851;28;20076;-76
2024/03/09 06:21:42;;;;;;;7.43;4.70;;;6.10;99.90;;;;;;4977373;28;20189;-77
2024/03/09 06:24:07;;;;;;;7.70;4.80;;;6.10;99.90;;;;;;4975496;28;20042;-77
2024/03/09 06:26:34;;;;;;;8.10;5.07;;;6.00;99.90;;;;;;4978293;28;20906;-77
2024/03/09 06:28:59;;;;;;;7.15;4.72;;;6.20;99.90;;;;;;4977263;28;20049;-77
2024/03/09 06:31:25;;;;;;;6.43;4.40;;;6.20;99.90;;;;;;4977863;28;20034;-77
2024/03/09 06:33:51;;;;;;;5.70;3.67;;;6.30;99.90;;;;;;4978982;28;20027;-77
2024/03/09 06:36:18;;;;;;;4.80;2.92;;;6.20;99.90;;;;;;4980093;28;20045;-77
2024/03/09 06:38:44;;;;;;;4.85;3.00;;;6.20;99.90;;;;;;4979984;28;20700;-77
2024/03/09 06:41:10;;;;;;;5.25;2.75;;;6.30;99.90;;;;;;4980077;28;20037;-77
2024/03/09 06:43:36;;;;;;;3.65;2.30;;;6.40;99.90;;;;;;4980107;28;20603;-77
2024/03/09 06:46:03;;;;;;;4.50;2.53;;;6.40;99.90;;;;;;4979231;28;20040;-77
2024/03/09 06:48:29;;;;;;;4.47;2.28;;;6.40;99.90;;;;;;4979600;28;20062;-77
2024/03/09 06:50:55;;;;;;;5.40;3.42;;;6.50;99.90;;;;;;4978656;28;20038;-77
2024/03/09 06:53:25;;;;;;;5.93;3.30;;;6.40;99.90;;;;;;4977690;28;20042;-77
2024/03/09 06:55:51;;;;;;;5.80;3.33;;;6.50;99.90;;;;;;4969927;28;20791;-78
2024/03/09 06:58:17;;;;;;;6.80;4.10;;;6.50;99.90;;;;;;4974218;28;20057;-77
2024/03/09 07:00:43;;;;;;;8.90;4.28;;;6.50;99.90;;;;;;4976763;28;20473;-77
2024/03/09 07:03:09;;;;;;;5.88;3.50;;;6.50;99.90;;;;;;4977113;28;20030;-77
2024/03/09 07:05:35;;;;;;;6.65;3.97;;;6.40;99.90;;;;;;4976579;28;20046;-77
2024/03/09 07:08:03;;;;;;;6.10;3.80;;;6.40;99.90;;;;;;4976631;28;20053;-77
2024/03/09 07:10:29;;;;;;;6.63;4.38;;;6.30;99.90;;;;;;4977226;28;20050;-77
2024/03/09 07:12:55;;;;;;;6.68;3.95;;;6.30;99.90;;;;;;4977880;28;20037;-77
2024/03/09 07:15:30;;;;;;;7.15;4.32;;;6.40;99.90;;;;;;4978564;28;20027;-77
2024/03/09 07:17:55;;;;;;;;;;;6.30;99.90;;;;;;4981619;28;20061;-77
2024/03/09 07:20:27;;;;;;;6.22;4.20;;;6.30;99.90;;;;;;4980147;28;19941;-77
2024/03/09 07:22:53;;;;;;;6.82;4.40;;;6.30;99.90;;;;;;4976770;28;20030;-77
2024/03/09 07:25:24;;;;;;;6.38;4.25;;;6.40;99.90;;;;;;4975231;28;20113;-78
2024/03/09 07:27:54;;;;;;;5.10;3.58;;;6.40;99.90;;;;;;4978454;28;20116;-78
2024/03/09 07:30:21;;;;;;;5.65;3.60;;;6.40;99.90;;;;;;4984118;28;20497;-79
2024/03/09 07:32:50;;;;;;;5.10;3.22;;;6.30;99.90;;;;;;4981710;28;20041;-78
2024/03/09 07:35:18;;;;;;;4.68;2.92;;;6.30;99.90;;;;;;4978502;28;20042;-79
2024/03/09 07:37:55;;;;;;;5.13;3.25;;;6.40;99.90;;;;;;4982519;28;20045;-79
2024/03/09 07:40:24;;;;;;;5.57;3.30;;;6.40;99.90;;;;;;4978936;28;20679;-79
2024/03/09 07:42:53;;;;;;;5.28;3.00;;;6.40;99.90;;;;;;4976566;28;20548;-78
2024/03/09 07:45:19;;;;;;;5.97;3.65;;;6.50;99.90;;;;;;4976407;28;20042;-78
2024/03/09 07:47:49;;;;;;;5.15;2.83;;;6.50;99.90;;;;;;4980088;28;20064;-78
2024/03/09 07:50:17;;;;;;;4.82;2.75;;;6.50;99.90;;;;;;4973380;28;20042;-78
2024/03/09 07:52:48;;;;;;;4.43;2.28;;;6.50;99.90;;;;;;4974589;28;20642;-78
2024/03/09 07:55:17;;;;;;;4.93;2.67;;;6.50;99.90;;;;;;4975717;28;20038;-78
2024/03/09 07:57:47;;;;;;;3.75;2.22;;;6.60;99.90;;;;;;4977132;28;20109;-78
2024/03/09 08:00:22;;;;;;;3.70;2.20;;;6.50;99.90;;;;;;4976284;28;20719;-79
2024/03/09 08:02:49;;;;;;;4.20;2.35;;;6.60;99.90;;;;;;4974070;28;20044;-79
2024/03/09 08:05:21;;;;;;;4.28;2.45;;;6.60;99.90;;;;;;4979736;28;20049;-78
2024/03/09 08:07:48;;;;;;;5.20;2.70;;;6.70;99.90;;;;;;4974254;28;20489;-79
2024/03/09 08:10:32;;;;;;;5.15;3.00;;;6.80;99.90;;;;;;4971316;28;20133;-77
2024/03/09 08:12:58;;;;;;;5.55;2.67;;;6.80;99.90;;;;;;4974836;28;20603;-77
2024/03/09 08:15:28;;;;;;;5.53;3.13;;;6.80;99.90;;;;;;4972762;28;20041;-77
2024/03/09 08:17:56;;;;;;;4.38;2.47;;;6.80;99.90;;;;;;4971367;28;20034;-77
2024/03/09 08:20:22;;;;;;;3.75;2.35;;;6.80;99.90;;;;;;4973194;28;20826;-77
2024/03/09 08:22:49;;;;;;;4.45;2.35;;;6.90;99.90;;;;;;4972101;28;20039;-77
2024/03/09 08:25:16;;;;;;;3.95;1.98;;;7.00;99.90;;;;;;4973140;28;20030;-76
2024/03/09 08:27:44;;;;;;;3.55;2.03;;;7.00;99.90;;;;;;4972195;28;20041;-77
2024/03/09 08:30:14;;;;;;;4.13;2.40;;;7.00;99.90;;;;;;4976616;28;20893;-77
2024/03/09 08:32:47;;;;;;;3.30;1.60;;;7.10;99.90;;;;;;4979264;28;20038;-77
2024/03/09 08:35:15;;;;;;;3.60;1.75;;;7.10;99.90;;;;;;4979332;28;20457;-77
2024/03/09 08:37:41;;;;;;;5.55;1.90;;;7.20;99.90;;;;;;4976855;28;20489;-77
2024/03/09 08:40:23;;;;;;;1.92;1.10;;;7.20;99.90;;;;;;4975684;28;20034;-77
2024/03/09 08:42:52;;;;;;;4.68;1.80;;;7.30;99.90;;;;;;4976607;28;20030;-77
2024/03/09 08:45:22;;;;;;;3.25;1.50;;;7.40;99.90;;;;;;4972309;28;20044;-77
2024/03/09 08:47:52;;;;;;;4.38;1.52;;;7.40;99.90;;;;;;4977388;28;20061;-77
2024/03/09 08:50:21;;;;;;;3.55;1.70;;;7.50;99.90;;;;;;4977818;28;20058;-77
2024/03/09 08:52:47;;;;;;;2.70;1.45;;;7.60;99.90;;;;;;4975779;28;20558;-77
2024/03/09 08:55:14;;;;;;;3.40;1.80;;;7.60;99.90;;;;;;4968860;28;20034;-77
2024/03/09 08:57:46;;;;;;;2.53;1.50;;;7.60;99.90;;;;;;4969779;28;20086;-77
2024/03/09 09:00:13;;;;;;;4.60;2.35;;;7.80;99.90;;;;;;4973846;28;20030;-77
2024/03/09 09:02:40;;;;;;;4.13;2.20;;;7.80;99.90;;;;;;4973878;28;20039;-77
2024/03/09 09:05:11;;;;;;;5.22;2.47;;;7.60;99.90;;;;;;4978505;28;20557;-77
2024/03/09 09:07:40;;;;;;;6.57;3.45;;;7.80;99.90;;;;;;4979893;28;20034;-77
2024/03/09 09:10:15;;;;;;;5.53;2.97;;;7.90;99.90;;;;;;4980779;28;20424;-77
2024/03/09 09:12:42;;;;;;;6.43;3.53;;;8.00;99.90;;;;;;4984219;28;20093;-77
2024/03/09 09:15:09;;;;;;;5.68;3.10;;;8.10;99.90;;;;;;4982941;28;20497;-77
2024/03/09 09:17:35;;;;;;;7.85;3.90;;;8.30;99.90;;;;;;4982887;28;20538;-78
2024/03/09 09:20:01;;;;;;;6.10;3.20;;;8.10;99.90;;;;;;4976837;28;20097;-78
2024/03/09 09:22:27;;;;;;;6.05;3.55;;;8.10;99.90;;;;;;4976054;28;20162;-78
2024/03/09 09:24:53;;;;;;;4.88;3.17;;;8.30;99.90;;;;;;4975504;28;20745;-78
2024/03/09 09:27:19;;;;;;;5.10;2.90;;;8.30;99.90;;;;;;4975251;28;20034;-78
2024/03/09 09:29:45;;;;;;;4.35;2.72;;;8.40;99.90;;;;;;4976548;28;20042;-78
2024/03/09 09:32:11;;;;;;;5.50;3.25;;;8.40;99.90;;;;;;4978330;28;20108;-78
2024/03/09 09:34:36;;;;;;;5.22;3.67;;;8.40;99.90;;;;;;4978733;28;20639;-78
2024/03/09 09:37:02;;;;;;;5.88;2.95;;;8.40;99.90;;;;;;4996324;28;20081;-80
2024/03/09 09:39:34;;;;;;;5.40;3.67;;;8.40;99.90;;;;;;5013277;28;20518;-79
2024/03/09 09:42:00;;;;;;;4.20;2.33;;;8.60;99.90;;;;;;5013646;28;20036;-79
2024/03/09 09:44:29;;;;;;;4.80;2.80;;;8.70;99.90;;;;;;5017472;28;20080;-77
2024/03/09 09:46:58;;;;;;;5.40;2.72;;;8.50;99.90;;;;;;5019252;28;20036;-76
2024/03/09 09:49:26;;;;;;;5.90;3.50;;;8.50;99.90;;;;;;5002319;28;20568;-77
2024/03/09 09:51:56;;;;;;;6.95;3.15;;;8.50;99.90;;;;;;5012889;28;20041;-77
2024/03/09 09:54:26;;;;;;;5.90;3.05;;;8.50;99.90;;;;;;5010731;28;20026;-77
2024/03/09 09:56:58;;;;;;;5.53;3.67;;;8.70;99.90;;;;;;5004438;28;20065;-77
2024/03/09 09:59:25;;;;;;;5.65;3.47;;;8.70;99.90;;;;;;5012459;28;20032;-77
2024/03/09 10:01:51;;;;;;;6.65;4.03;;;8.70;99.90;;;;;;5014932;28;20029;-77
2024/03/09 10:04:17;;;;;;;6.07;3.85;;;8.50;99.90;;;;;;5008166;28;20081;-78
2024/03/09 10:06:43;;;;;;;7.68;4.57;;;8.70;99.90;;;;;;5011493;28;20440;-77
2024/03/09 10:09:09;;;;;;;6.45;3.97;;;8.90;99.90;;;;;;5002649;28;20044;-78
2024/03/09 10:11:35;;;;;;;6.18;3.83;;;9.10;99.90;;;;;;5009253;28;20057;-77
2024/03/09 10:14:01;;;;;;;7.68;4.50;;;9.20;99.90;;;;;;5011886;28;20043;-77
2024/03/09 10:16:32;;;;;;;7.20;3.38;;;9.20;99.90;;;;;;5017751;28;20037;-78
2024/03/09 10:18:59;;;;;;;7.18;4.32;;;9.40;99.90;;;;;;5017914;28;20041;-78
2024/03/09 10:21:37;;;;;;;7.68;4.07;;;9.30;99.90;;;;;;5011498;28;20095;-78
2024/03/09 10:24:08;;;;;;;6.95;4.05;;;9.60;99.90;;;;;;5006911;28;20089;-77
2024/03/09 10:26:35;;;;;;;7.65;4.90;;;9.60;99.90;;;;;;4995661;28;20038;-76
2024/03/09 10:29:02;;;;;;;6.65;3.72;;;9.40;99.90;;;;;;5002631;28;20034;-77
2024/03/09 10:31:29;;;;;;;6.10;3.92;;;9.30;99.90;;;;;;5002593;28;20083;-77
2024/03/09 10:33:55;;;;;;;6.45;3.65;;;9.40;99.90;;;;;;5002545;28;20037;-77
2024/03/09 10:36:26;;;;;;;6.88;3.42;;;9.70;99.90;;;;;;5015646;28;20599;-78
2024/03/09 10:38:55;;;;;;;5.88;3.08;;;9.80;99.90;;;;;;5011811;28;21234;-77
2024/03/09 10:41:28;;;;;;;4.95;2.80;;;10.00;99.90;;;;;;5014678;28;20035;-77
2024/03/09 10:43:55;;;;;;;6.45;3.05;;;10.30;99.90;;;;;;5014418;28;20065;-77
2024/03/09 10:46:27;;;;;;;7.47;3.25;;;10.20;99.90;;;;;;5010452;28;20415;-77
2024/03/09 10:48:58;;;;;;;5.47;2.72;;;10.30;99.90;;;;;;5011916;28;20629;-77
2024/03/09 10:51:50;;;;;;;6.15;3.08;;;10.30;99.90;;;;;;5015969;28;20037;-77
2024/03/09 10:54:40;;;;;;;4.70;2.28;;;10.40;99.90;;;;;;5011657;28;20041;-77
2024/03/09 10:57:11;;;;;;;3.47;1.73;;;10.50;99.90;;;;;;5002392;28;20030;-77
2024/03/09 10:59:41;;;;;;;7.45;3.78;;;10.60;99.90;;;;;;5001578;28;20520;-77
2024/03/09 11:02:07;;;;;;;4.65;3.10;;;10.60;99.90;;;;;;5008656;28;20035;-77
2024/03/09 11:04:34;;;;;;;5.32;2.70;;;10.50;99.90;;;;;;5008146;28;20060;-77
2024/03/09 11:07:01;;;;;;;3.45;2.00;;;10.50;99.90;;;;;;5005234;28;20593;-76
2024/03/09 11:09:31;;;;;;;4.18;1.95;;;10.50;99.90;;;;;;5004999;28;20091;-76
2024/03/09 11:11:59;;;;;;;3.95;1.90;;;10.60;99.90;;;;;;5009569;28;20068;-77
2024/03/09 11:14:25;;;;;;;4.03;2.10;;;10.60;99.90;;;;;;5010263;28;20041;-77
2024/03/09 11:16:55;;;;;;;5.68;2.35;;;10.60;99.90;;;;;;5009166;28;20041;-77
2024/03/09 11:19:21;;;;;;;4.75;2.22;;;10.50;99.90;;;;;;5001379;28;20036;-81
2024/03/09 11:21:51;;;;;;;5.38;2.47;;;10.70;99.90;;;;;;5006720;28;20049;-79
2024/03/09 11:24:18;;;;;;;4.63;2.50;;;10.70;99.90;;;;;;5013492;28;20060;-78
2024/03/09 11:26:52;;;;;;;7.18;2.78;;;10.90;99.90;;;;;;5010555;28;20041;-78
2024/03/09 11:29:22;;;;;;;32.13;16.52;;;10.90;99.90;;;;;;5006407;28;20036;-79
2024/03/09 11:31:50;;;;;;;35.72;20.13;;;10.90;99.90;;;;;;5008700;28;20033;-79
2024/03/09 11:34:21;;;;;;;9.88;5.38;;;10.90;99.90;;;;;;5007385;28;20043;-79
2024/03/09 11:36:51;;;;;;;5.93;3.30;;;10.70;99.90;;;;;;5007948;28;20442;-79
2024/03/09 11:39:22;;;;;;;3.85;2.03;;;10.90;99.90;;;;;;5011421;28;20132;-79
2024/03/09 11:41:49;;;;;;;4.70;2.55;;;10.60;99.90;;;;;;5005312;28;20036;-79
2024/03/09 11:44:27;;;;;;;6.03;2.55;;;10.80;99.90;;;;;;5007914;28;20134;-79
2024/03/09 11:46:55;;;;;;;5.13;2.30;;;10.90;99.90;;;;;;5007153;28;20033;-79
2024/03/09 11:49:27;;;;;;;5.10;3.05;;;10.90;99.90;;;;;;5002221;28;21035;-78
2024/03/09 11:51:57;;;;;;;5.43;2.90;;;10.80;99.90;;;;;;5004284;28;20394;-79
2024/03/09 11:54:24;;;;;;;4.78;2.45;;;10.70;99.90;;;;;;5002219;28;20476;-78
2024/03/09 11:56:51;;;;;;;5.20;2.80;;;10.80;99.90;;;;;;5003987;28;20033;-79
2024/03/09 11:59:17;;;;;;;5.72;2.30;;;10.80;99.90;;;;;;5005126;28;20040;-78
2024/03/09 12:01:43;;;;;;;5.28;2.85;;;10.80;99.90;;;;;;5004917;28;20063;-78
2024/03/09 12:04:10;;;;;;;5.35;2.67;;;10.80;99.90;;;;;;5001895;28;20079;-78
2024/03/09 12:06:40;;;;;;;13.63;5.38;;;10.80;99.90;;;;;;5006699;28;20037;-78
2024/03/09 12:09:07;;;;;;;6.70;3.03;;;11.00;99.90;;;;;;5002638;28;20033;-78
2024/03/09 12:11:38;;;;;;;5.53;2.95;;;10.90;99.90;;;;;;5005541;28;20065;-78
2024/03/09 12:14:06;;;;;;;5.47;3.03;;;10.90;99.90;;;;;;5002105;28;20064;-76
2024/03/09 12:16:32;;;;;;;6.32;2.38;;;10.80;99.90;;;;;;5002887;28;20692;-78
2024/03/09 12:19:06;;;;;;;4.90;2.38;;;11.00;99.90;;;;;;5003696;28;20559;-79
2024/03/09 12:21:35;;;;;;;55.13;22.38;;;11.00;99.90;;;;;;5004117;28;20030;-78
2024/03/09 12:24:00;;;;;;;48.63;23.33;;;11.10;99.90;;;;;;5001465;28;20060;-78
2024/03/09 12:26:28;;;;;;;32.63;14.82;;;11.30;99.90;;;;;;5002114;28;20468;-78
2024/03/09 12:28:57;;;;;;;29.48;13.13;;;11.40;99.90;;;;;;5003348;28;20034;-79
2024/03/09 12:31:23;;;;;;;14.52;7.53;;;11.30;99.90;;;;;;5002785;28;20029;-79
2024/03/09 12:33:54;;;;;;;58.45;31.70;;;11.30;99.90;;;;;;5004255;28;20036;-79
2024/03/09 12:36:20;;;;;;;20.77;12.77;;;11.40;99.90;;;;;;5009784;28;20903;-78
2024/03/09 12:38:47;;;;;;;12.57;7.78;;;11.50;99.90;;;;;;5011374;28;20060;-79
2024/03/09 12:41:27;;;;;;;9.25;6.28;;;11.60;99.90;;;;;;5015872;28;20034;-79
2024/03/09 12:43:55;;;;;;;7.30;4.05;;;11.60;99.90;;;;;;5018089;28;20554;-79
2024/03/09 12:46:26;;;;;;;5.32;2.75;;;11.40;99.90;;;;;;5018206;28;20029;-79
2024/03/09 12:48:53;;;;;;;4.55;2.45;;;11.40;99.90;;;;;;5017794;28;20557;-79
2024/03/09 12:51:19;;;;;;;4.45;2.10;;;11.40;99.90;;;;;;5017151;28;20045;-78
2024/03/09 12:54:00;;;;;;;4.63;1.98;;;11.60;99.90;;;;;;5018150;28;20037;-79
2024/03/09 12:56:30;;;;;;;3.05;1.55;;;11.70;99.90;;;;;;5014782;28;20388;-79
2024/03/09 12:59:01;;;;;;;2.67;1.10;;;11.80;99.90;;;;;;5016593;28;20033;-79
2024/03/09 13:01:31;;;;;;;2.45;1.15;;;12.00;99.90;;;;;;5014638;28;20108;-79